createdAt,value
2022-10-23T00:00:34.108Z,9.13
2022-10-23T00:03:01.042Z,9.31
2022-10-23T00:05:28.965Z,9.61
2022-10-23T00:07:58.605Z,9.64
2022-10-23T00:10:27.574Z,9.78
2022-10-23T00:12:54.835Z,9.82
2022-10-23T00:15:23.666Z,9.90
2022-10-23T00:17:50.665Z,9.82
2022-10-23T00:20:18.106Z,9.85
2022-10-23T00:22:45.076Z,9.86
2022-10-23T00:25:13.813Z,9.91
2022-10-23T00:27:41.277Z,9.90
2022-10-23T00:30:08.741Z,9.81
2022-10-23T00:32:35.609Z,9.71
2022-10-23T00:35:02.420Z,9.70
2022-10-23T00:37:29.339Z,9.66
2022-10-23T00:39:56.236Z,9.67
2022-10-23T00:42:23.503Z,9.63
2022-10-23T00:44:50.310Z,9.59
2022-10-23T00:47:18.440Z,9.48
2022-10-23T00:49:45.228Z,9.34
2022-10-23T00:52:14.056Z,9.26
2022-10-23T00:54:43.362Z,9.14
2022-10-23T00:57:14.008Z,9.06
2022-10-23T00:59:40.941Z,8.98
2022-10-23T01:02:08.724Z,8.96
2022-10-23T01:04:36.591Z,8.89
2022-10-23T01:07:22.883Z,8.85
2022-10-23T01:10:12.845Z,8.81
2022-10-23T01:12:50.742Z,8.81
2022-10-23T01:15:31.112Z,8.66
2022-10-23T01:18:13.377Z,8.60
2022-10-23T01:20:46.531Z,8.59
2022-10-23T01:23:35.358Z,8.50
2022-10-23T01:26:14.500Z,8.47
2022-10-23T01:28:50.825Z,8.45
2022-10-23T01:31:25.804Z,8.46
2022-10-23T01:33:58.904Z,8.55
2022-10-23T01:36:29.389Z,8.73
2022-10-23T01:39:01.650Z,8.69
2022-10-23T01:41:34.603Z,8.58
2022-10-23T01:44:09.079Z,8.81
2022-10-23T01:46:37.504Z,8.62
2022-10-23T01:49:08.889Z,8.58
2022-10-23T01:51:38.606Z,8.66
2022-10-23T01:54:09.868Z,8.62
2022-10-23T01:56:39.519Z,8.64
2022-10-23T01:59:11.752Z,8.45
2022-10-23T02:01:44.348Z,8.50
2022-10-23T02:04:15.046Z,8.48
2022-10-23T02:06:41.897Z,8.42
2022-10-23T02:09:08.902Z,8.35
2022-10-23T02:11:42.981Z,8.34
2022-10-23T02:14:59.487Z,8.31
2022-10-23T02:18:03.879Z,8.29
2022-10-23T02:20:55.567Z,8.22
2022-10-23T02:23:28.248Z,8.22
2022-10-23T02:26:02.296Z,8.18
2022-10-23T02:28:36.969Z,8.18
2022-10-23T02:31:05.419Z,8.14
2022-10-23T02:33:33.980Z,8.08
2022-10-23T02:36:04.075Z,8.02
2022-10-23T02:38:57.400Z,7.97
2022-10-23T02:41:29.354Z,7.91
2022-10-23T02:44:14.163Z,7.81
2022-10-23T02:46:58.263Z,7.76
2022-10-23T02:49:34.108Z,7.74
2022-10-23T02:52:08.947Z,7.75
2022-10-23T02:54:41.820Z,7.71
2022-10-23T02:57:22.648Z,7.59
2022-10-23T02:59:55.806Z,7.58
2022-10-23T03:02:37.983Z,7.54
2022-10-23T03:05:09.916Z,7.51
2022-10-23T03:07:38.668Z,7.45
2022-10-23T03:10:06.201Z,7.37
2022-10-23T03:12:33.110Z,7.43
2022-10-23T03:14:59.912Z,7.43
2022-10-23T03:17:26.729Z,7.39
2022-10-23T03:19:53.653Z,7.33
2022-10-23T03:22:20.408Z,7.17
2022-10-23T03:24:47.138Z,7.19
2022-10-23T03:27:14.002Z,7.12
2022-10-23T03:29:40.797Z,7.06
2022-10-23T03:32:07.641Z,6.95
2022-10-23T03:34:35.738Z,7.01
2022-10-23T03:37:02.597Z,7.03
2022-10-23T03:39:29.521Z,6.98
2022-10-23T03:41:56.462Z,6.90
2022-10-23T03:44:23.246Z,6.85
2022-10-23T03:46:49.973Z,6.85
2022-10-23T03:49:16.776Z,6.96
2022-10-23T03:51:44.861Z,6.94
2022-10-23T03:54:11.773Z,6.92
2022-10-23T03:56:38.496Z,6.90
2022-10-23T03:59:05.257Z,6.90
2022-10-23T04:01:32.076Z,6.85
2022-10-23T04:03:58.881Z,6.86
2022-10-23T04:06:25.770Z,6.82
2022-10-23T04:08:52.618Z,6.84
2022-10-23T04:11:19.365Z,6.80
2022-10-23T04:13:46.420Z,6.77
2022-10-23T04:16:13.344Z,6.72
2022-10-23T04:18:41.590Z,6.66
2022-10-23T04:21:09.189Z,6.52
2022-10-23T04:23:36.263Z,6.40
2022-10-23T04:26:03.103Z,6.46
2022-10-23T04:28:30.070Z,6.40
2022-10-23T04:30:59.085Z,6.43
2022-10-23T04:33:25.966Z,6.45
2022-10-23T04:35:52.793Z,6.48
2022-10-23T04:38:19.508Z,6.50
2022-10-23T04:40:46.474Z,6.52
2022-10-23T04:43:13.264Z,6.48
2022-10-23T04:45:40.050Z,6.49
2022-10-23T04:48:06.828Z,6.47
2022-10-23T04:50:33.575Z,6.47
2022-10-23T04:53:00.342Z,6.38
2022-10-23T04:55:27.188Z,6.50
2022-10-23T04:57:53.986Z,6.45
2022-10-23T05:00:20.968Z,6.44
2022-10-23T05:02:47.834Z,6.39
2022-10-23T05:05:18.120Z,6.30
2022-10-23T05:07:45.262Z,6.28
2022-10-23T05:10:12.242Z,6.27
2022-10-23T05:12:38.976Z,6.26
2022-10-23T05:15:06.451Z,6.25
2022-10-23T05:17:37.411Z,6.29
2022-10-23T05:20:09.770Z,6.35
2022-10-23T05:22:39.258Z,6.36
2022-10-23T05:25:06.135Z,6.32
2022-10-23T05:27:33.062Z,6.34
2022-10-23T05:30:00.091Z,6.35
2022-10-23T05:32:29.684Z,6.41
2022-10-23T05:34:56.943Z,6.40
2022-10-23T05:37:23.898Z,6.46
2022-10-23T05:39:50.814Z,6.39
2022-10-23T05:42:17.798Z,6.42
2022-10-23T05:44:44.616Z,6.44
2022-10-23T05:47:11.411Z,6.47
2022-10-23T05:49:38.140Z,6.51
2022-10-23T05:52:05.243Z,6.52
2022-10-23T05:54:32.081Z,6.59
2022-10-23T05:56:58.875Z,6.64
2022-10-23T05:59:25.686Z,6.69
2022-10-23T06:01:52.659Z,6.62
2022-10-23T06:04:19.598Z,6.78
2022-10-23T06:06:47.119Z,6.81
2022-10-23T06:09:15.362Z,6.91
2022-10-23T06:11:42.696Z,7.03
2022-10-23T06:14:09.517Z,7.17
2022-10-23T06:16:36.437Z,7.20
2022-10-23T06:19:03.614Z,7.23
2022-10-23T06:21:30.332Z,7.23
2022-10-23T06:23:57.278Z,7.37
2022-10-23T06:26:24.049Z,7.40
2022-10-23T06:28:50.890Z,7.47
2022-10-23T06:31:19.678Z,7.63
2022-10-23T06:33:46.571Z,7.71
2022-10-23T06:36:13.369Z,7.67
2022-10-23T06:38:40.767Z,7.70
2022-10-23T06:41:13.309Z,7.67
2022-10-23T06:43:40.157Z,7.79
2022-10-23T06:46:07.154Z,7.84
2022-10-23T06:48:34.143Z,8.04
2022-10-23T06:51:07.048Z,8.13
2022-10-23T06:53:34.295Z,8.31
2022-10-23T06:56:02.237Z,8.38
2022-10-23T06:58:29.191Z,8.53
2022-10-23T07:00:59.734Z,8.64
2022-10-23T07:03:26.621Z,8.73
2022-10-23T07:05:53.439Z,8.81
2022-10-23T07:08:20.375Z,8.90
2022-10-23T07:10:48.520Z,9.02
2022-10-23T07:13:15.387Z,9.16
2022-10-23T07:15:42.180Z,9.25
2022-10-23T07:18:14.551Z,9.22
2022-10-23T07:20:41.988Z,9.36
2022-10-23T07:23:11.172Z,9.38
2022-10-23T07:25:38.282Z,9.39
2022-10-23T07:28:05.389Z,9.36
2022-10-23T07:30:32.141Z,9.41
2022-10-23T07:32:59.207Z,9.60
2022-10-23T07:35:25.976Z,9.67
2022-10-23T07:37:52.977Z,9.62
2022-10-23T07:40:19.852Z,9.80
2022-10-23T07:42:46.587Z,9.90
2022-10-23T07:45:13.356Z,9.94
2022-10-23T07:47:40.399Z,9.97
2022-10-23T07:50:08.200Z,10.09
2022-10-23T07:52:36.409Z,10.21
2022-10-23T07:55:03.633Z,10.36
2022-10-23T07:57:30.533Z,10.39
2022-10-23T07:59:57.531Z,10.60
2022-10-23T08:02:24.392Z,10.70
2022-10-23T08:04:51.353Z,10.65
2022-10-23T08:07:18.247Z,10.63
2022-10-23T08:09:45.192Z,10.34
2022-10-23T08:12:11.932Z,10.41
2022-10-23T08:14:38.826Z,10.35
2022-10-23T08:17:05.742Z,10.56
2022-10-23T08:19:32.755Z,10.61
2022-10-23T08:21:59.590Z,10.75
2022-10-23T08:24:26.384Z,10.73
2022-10-23T08:26:53.168Z,10.95
2022-10-23T08:29:19.926Z,11.07
2022-10-23T08:31:46.942Z,11.09
2022-10-23T08:34:15.393Z,11.26
2022-10-23T08:36:42.281Z,11.36
2022-10-23T08:39:09.660Z,11.58
2022-10-23T08:41:40.400Z,11.64
2022-10-23T08:44:18.264Z,11.68
2022-10-23T08:46:50.689Z,11.75
2022-10-23T08:49:20.500Z,11.79
2022-10-23T08:51:51.855Z,12.03
2022-10-23T08:54:28.082Z,11.91
2022-10-23T08:57:02.754Z,11.96
2022-10-23T08:59:44.384Z,12.09
2022-10-23T09:02:17.974Z,12.14
2022-10-23T09:04:47.528Z,12.19
2022-10-23T09:07:39.543Z,12.05
2022-10-23T09:10:36.726Z,12.10
2022-10-23T09:13:16.350Z,12.09
2022-10-23T09:15:47.996Z,12.29
2022-10-23T09:18:16.749Z,12.35
2022-10-23T09:20:46.213Z,12.34
2022-10-23T09:23:16.875Z,12.49
2022-10-23T09:25:45.602Z,12.55
2022-10-23T09:28:20.156Z,12.70
2022-10-23T09:30:48.127Z,12.99
2022-10-23T09:33:19.130Z,13.63
2022-10-23T09:35:54.827Z,14.75
2022-10-23T09:38:27.799Z,15.27
2022-10-23T09:40:55.328Z,15.14
2022-10-23T09:43:24.170Z,14.81
2022-10-23T09:46:03.312Z,14.28
2022-10-23T09:48:30.181Z,15.19
2022-10-23T09:51:03.283Z,16.07
2022-10-23T09:53:48.159Z,16.70
2022-10-23T09:56:34.024Z,16.61
2022-10-23T09:59:13.049Z,17.41
2022-10-23T10:02:13.808Z,17.59
2022-10-23T10:04:41.817Z,18.40
2022-10-23T10:07:36.703Z,18.77
2022-10-23T10:10:13.922Z,19.12
2022-10-23T10:13:25.542Z,19.80
2022-10-23T10:15:58.149Z,19.78
2022-10-23T10:18:37.384Z,20.56
2022-10-23T10:21:51.083Z,20.99
2022-10-23T10:24:28.194Z,20.93
2022-10-23T10:27:03.928Z,21.01
2022-10-23T10:29:41.657Z,21.99
2022-10-23T10:32:20.414Z,22.42
2022-10-23T10:35:24.801Z,22.33
2022-10-23T10:37:57.411Z,21.47
2022-10-23T10:40:38.458Z,21.79
2022-10-23T10:43:23.819Z,22.35
2022-10-23T10:46:10.267Z,22.53
2022-10-23T10:48:52.517Z,22.86
2022-10-23T10:52:01.411Z,23.19
2022-10-23T10:55:05.569Z,22.16
2022-10-23T10:57:38.318Z,22.93
2022-10-23T11:00:14.949Z,23.23
2022-10-23T11:03:00.832Z,23.04
2022-10-23T11:05:32.536Z,22.28
2022-10-23T11:08:17.858Z,23.40
2022-10-23T11:10:47.385Z,23.28
2022-10-23T11:13:37.886Z,23.48
2022-10-23T11:16:12.780Z,23.07
2022-10-23T11:18:44.115Z,22.48
2022-10-23T11:21:25.849Z,23.51
2022-10-23T11:24:15.445Z,23.11
2022-10-23T11:27:00.033Z,22.02
2022-10-23T11:29:35.829Z,22.61
2022-10-23T11:32:24.425Z,22.79
2022-10-23T11:35:03.943Z,22.51
2022-10-23T11:37:30.959Z,23.18
2022-10-23T11:40:06.539Z,22.95
2022-10-23T11:42:47.176Z,23.11
2022-10-23T11:45:32.034Z,23.75
2022-10-23T11:48:05.556Z,22.29
2022-10-23T11:50:49.938Z,23.08
2022-10-23T11:53:31.567Z,22.45
2022-10-23T11:56:03.928Z,22.73
2022-10-23T11:58:48.590Z,22.43
2022-10-23T12:01:19.912Z,22.89
2022-10-23T12:03:58.003Z,23.40
2022-10-23T12:06:28.849Z,23.54
2022-10-23T12:09:01.873Z,23.91
2022-10-23T12:11:43.986Z,24.49
2022-10-23T12:14:26.706Z,24.48
2022-10-23T12:16:54.063Z,23.91
2022-10-23T12:19:23.674Z,22.54
2022-10-23T12:21:53.650Z,22.40
2022-10-23T12:24:58.404Z,22.13
2022-10-23T12:27:38.187Z,23.26
2022-10-23T12:31:04.497Z,22.46
2022-10-23T12:33:50.106Z,22.21
2022-10-23T12:36:41.938Z,23.06
2022-10-23T12:39:28.212Z,22.57
2022-10-23T12:41:56.409Z,23.27
2022-10-23T12:44:25.720Z,23.49
2022-10-23T12:46:58.248Z,22.98
2022-10-23T12:49:27.982Z,23.96
2022-10-23T12:52:00.942Z,23.91
2022-10-23T12:54:30.589Z,24.42
2022-10-23T12:56:57.962Z,23.31
2022-10-23T12:59:28.362Z,22.08
2022-10-23T13:01:55.897Z,22.33
2022-10-23T13:04:29.148Z,21.88
2022-10-23T13:06:59.191Z,21.56
2022-10-23T13:09:40.803Z,21.01
2022-10-23T13:12:16.297Z,20.31
2022-10-23T13:14:56.928Z,19.81
2022-10-23T13:17:38.766Z,19.73
2022-10-23T13:20:22.326Z,19.74
2022-10-23T13:23:09.235Z,20.66
2022-10-23T13:25:39.043Z,20.03
2022-10-23T13:28:25.813Z,19.90
2022-10-23T13:31:10.587Z,19.86
2022-10-23T13:33:52.639Z,19.29
2022-10-23T13:36:23.196Z,19.12
2022-10-23T13:39:02.158Z,19.04
2022-10-23T13:41:36.897Z,18.64
2022-10-23T13:44:04.250Z,18.48
2022-10-23T13:46:32.394Z,18.37
2022-10-23T13:48:59.634Z,18.31
2022-10-23T13:51:37.571Z,18.01
2022-10-23T13:54:15.313Z,18.00
2022-10-23T13:56:43.041Z,17.83
2022-10-23T13:59:11.175Z,17.92
2022-10-23T14:01:39.347Z,17.87
2022-10-23T14:04:07.763Z,17.96
2022-10-23T14:06:37.588Z,17.96
2022-10-23T14:09:16.334Z,17.83
2022-10-23T14:11:44.130Z,17.83
2022-10-23T14:14:11.809Z,17.85
2022-10-23T14:16:39.960Z,17.76
2022-10-23T14:19:07.991Z,17.81
2022-10-23T14:21:35.528Z,17.78
2022-10-23T14:24:02.960Z,17.85
2022-10-23T14:26:30.472Z,17.62
2022-10-23T14:29:02.299Z,17.54
2022-10-23T14:31:38.253Z,17.52
2022-10-23T14:34:05.862Z,17.36
2022-10-23T14:36:43.274Z,17.49
2022-10-23T14:39:18.870Z,17.48
2022-10-23T14:41:47.850Z,17.51
2022-10-23T14:44:15.410Z,17.56
2022-10-23T14:46:45.199Z,17.44
2022-10-23T14:49:13.495Z,17.41
2022-10-23T14:51:41.193Z,17.40
2022-10-23T14:54:09.681Z,17.35
2022-10-23T14:56:40.035Z,17.23
2022-10-23T14:59:09.620Z,17.06
2022-10-23T15:01:43.748Z,17.20
2022-10-23T15:04:17.241Z,17.08
2022-10-23T15:06:47.172Z,17.08
2022-10-23T15:09:15.028Z,17.09
2022-10-23T15:11:42.852Z,16.92
2022-10-23T15:14:12.268Z,16.98
2022-10-23T15:16:43.182Z,17.00
2022-10-23T15:19:15.459Z,17.02
2022-10-23T15:21:47.175Z,17.00
2022-10-23T15:24:18.485Z,17.01
2022-10-23T15:26:46.500Z,16.99
2022-10-23T15:29:15.048Z,16.93
2022-10-23T15:31:45.889Z,16.93
2022-10-23T15:34:19.882Z,17.00
2022-10-23T15:36:48.878Z,17.02
2022-10-23T15:39:22.265Z,17.07
2022-10-23T15:41:53.634Z,17.09
2022-10-23T15:44:25.245Z,17.05
2022-10-23T15:46:57.369Z,16.98
2022-10-23T15:49:26.838Z,16.94
2022-10-23T15:51:55.883Z,16.82
2022-10-23T15:54:28.044Z,16.76
2022-10-23T15:56:59.207Z,16.71
2022-10-23T15:59:27.644Z,16.68
2022-10-23T16:01:55.916Z,16.75
2022-10-23T16:04:24.942Z,16.75
2022-10-23T16:06:52.619Z,16.74
2022-10-23T16:09:20.437Z,16.75
2022-10-23T16:11:49.211Z,16.74
2022-10-23T16:14:17.981Z,16.73
2022-10-23T16:16:45.826Z,16.67
2022-10-23T16:19:17.751Z,16.69
2022-10-23T16:21:45.564Z,16.64
2022-10-23T16:24:13.049Z,16.62
2022-10-23T16:26:41.215Z,16.59
2022-10-23T16:29:10.017Z,16.57
2022-10-23T16:31:38.927Z,16.57
2022-10-23T16:34:07.572Z,16.49
2022-10-23T16:36:39.140Z,16.51
2022-10-23T16:39:09.882Z,16.49
2022-10-23T16:41:37.265Z,16.50
2022-10-23T16:44:06.820Z,16.40
2022-10-23T16:46:36.078Z,16.45
2022-10-23T16:49:04.243Z,16.38
2022-10-23T16:51:32.439Z,16.37
2022-10-23T16:54:01.916Z,16.27
2022-10-23T16:56:31.358Z,16.23
2022-10-23T16:59:00.553Z,16.20
2022-10-23T17:01:32.017Z,16.17
2022-10-23T17:04:00.922Z,16.16
2022-10-23T17:06:32.551Z,16.20
2022-10-23T17:09:02.133Z,16.19
2022-10-23T17:11:36.081Z,16.21
2022-10-23T17:14:29.848Z,16.12
2022-10-23T17:17:01.851Z,16.16
2022-10-23T17:19:47.221Z,16.15
2022-10-23T17:22:16.432Z,16.12
2022-10-23T17:24:47.459Z,16.08
2022-10-23T17:27:19.538Z,15.99
2022-10-23T17:29:48.037Z,16.10
2022-10-23T17:32:17.671Z,16.10
2022-10-23T17:34:46.754Z,16.04
2022-10-23T17:37:15.714Z,16.00
2022-10-23T17:39:44.011Z,16.02
2022-10-23T17:42:13.458Z,16.01
2022-10-23T17:44:41.456Z,15.96
2022-10-23T17:47:09.482Z,15.96
2022-10-23T17:49:40.635Z,15.94
2022-10-23T17:52:14.744Z,15.91
2022-10-23T17:54:42.771Z,15.92
2022-10-23T17:57:18.051Z,15.91
2022-10-23T17:59:46.364Z,15.87
2022-10-23T18:02:14.909Z,15.79
2022-10-23T18:04:46.319Z,15.76
2022-10-23T18:07:16.027Z,15.75
2022-10-23T18:09:45.563Z,15.71
2022-10-23T18:12:14.105Z,15.69
2022-10-23T18:14:43.371Z,15.68
2022-10-23T18:17:11.833Z,15.67
2022-10-23T18:19:40.507Z,15.53
2022-10-23T18:22:09.415Z,15.60
2022-10-23T18:24:39.604Z,15.58
2022-10-23T18:27:08.010Z,15.47
2022-10-23T18:29:36.335Z,15.56
2022-10-23T18:32:05.275Z,15.61
2022-10-23T18:34:33.938Z,15.67
2022-10-23T18:37:03.136Z,15.69
2022-10-23T18:39:34.753Z,15.68
2022-10-23T18:42:02.977Z,15.76
2022-10-23T18:44:30.948Z,15.78
2022-10-23T18:47:00.253Z,15.77
2022-10-23T18:49:29.459Z,15.73
2022-10-23T18:51:58.822Z,15.75
2022-10-23T18:54:26.915Z,15.75
2022-10-23T18:56:56.062Z,15.76
2022-10-23T18:59:24.895Z,15.77
2022-10-23T19:01:55.133Z,15.80
2022-10-23T19:04:24.440Z,15.81
2022-10-23T19:06:53.382Z,15.79
2022-10-23T19:09:22.555Z,15.77
2022-10-23T19:11:50.537Z,15.77
2022-10-23T19:14:19.522Z,15.76
2022-10-23T19:16:54.674Z,15.76
2022-10-23T19:19:27.031Z,15.78
2022-10-23T19:21:55.787Z,15.79
2022-10-23T19:24:32.442Z,15.77
2022-10-23T19:27:01.852Z,15.74
2022-10-23T19:29:31.469Z,15.79
2022-10-23T19:32:00.785Z,15.79
2022-10-23T19:34:29.655Z,15.76
2022-10-23T19:36:58.036Z,15.73
2022-10-23T19:39:27.157Z,15.74
2022-10-23T19:41:58.550Z,15.73
2022-10-23T19:44:26.953Z,15.71
2022-10-23T19:46:55.083Z,15.71
2022-10-23T19:49:24.325Z,15.68
2022-10-23T19:51:53.423Z,15.68
2022-10-23T19:54:22.312Z,15.67
2022-10-23T19:56:53.488Z,15.62
2022-10-23T19:59:21.914Z,15.55
2022-10-23T20:01:50.550Z,15.56
2022-10-23T20:04:19.135Z,15.57
2022-10-23T20:06:47.999Z,15.52
2022-10-23T20:09:16.286Z,15.53
2022-10-23T20:11:45.630Z,15.52
2022-10-23T20:14:13.767Z,15.52
2022-10-23T20:16:45.295Z,15.49
2022-10-23T20:21:49.815Z,15.51
2022-10-23T20:24:19.888Z,15.50
2022-10-23T20:26:50.535Z,15.46
2022-10-23T20:29:18.807Z,15.43
2022-10-23T20:31:46.570Z,15.46
2022-10-23T20:34:14.869Z,15.45
2022-10-23T20:36:46.753Z,15.44
2022-10-23T20:39:26.042Z,15.44
2022-10-23T20:41:55.869Z,15.42
2022-10-23T20:44:24.257Z,15.38
2022-10-23T20:46:55.276Z,15.45
2022-10-23T20:49:23.789Z,15.43
2022-10-23T20:51:56.194Z,15.40
2022-10-23T20:54:25.598Z,15.39
2022-10-23T20:56:52.828Z,15.35
2022-10-23T20:59:19.825Z,15.28
2022-10-23T21:01:53.440Z,15.21
2022-10-23T21:04:24.443Z,15.11
2022-10-23T21:07:10.300Z,15.02
2022-10-23T21:09:40.650Z,14.91
2022-10-23T21:12:08.394Z,14.81
2022-10-23T21:14:35.862Z,14.73
2022-10-23T21:17:03.075Z,14.67
2022-10-23T21:19:29.810Z,14.68
2022-10-23T21:21:56.741Z,14.68
2022-10-23T21:24:24.653Z,14.68
2022-10-23T21:26:51.619Z,14.67
2022-10-23T21:29:19.819Z,14.71
2022-10-23T21:31:59.385Z,14.74
2022-10-23T21:34:27.171Z,14.75
2022-10-23T21:37:12.050Z,14.80
2022-10-23T21:39:40.679Z,14.82
2022-10-23T21:42:07.890Z,14.83
2022-10-23T21:44:34.735Z,14.84
2022-10-23T21:47:01.930Z,14.87
2022-10-23T21:49:29.026Z,14.83
2022-10-23T21:51:55.896Z,14.91
2022-10-23T21:54:22.808Z,14.88
2022-10-23T21:56:51.359Z,14.87
2022-10-23T21:59:20.885Z,14.88
2022-10-23T22:01:48.933Z,14.89
2022-10-23T22:04:17.483Z,14.82
2022-10-23T22:06:46.298Z,14.89
2022-10-23T22:09:15.541Z,14.89
2022-10-23T22:11:43.091Z,14.87
2022-10-23T22:14:10.024Z,14.88
2022-10-23T22:16:37.319Z,14.82
2022-10-23T22:19:04.511Z,14.84
2022-10-23T22:21:31.702Z,14.83
2022-10-23T22:24:00.330Z,14.67
2022-10-23T22:26:49.311Z,14.82
2022-10-23T22:29:23.514Z,14.83
2022-10-23T22:31:50.850Z,14.83
2022-10-23T22:34:28.735Z,14.83
2022-10-23T22:37:10.966Z,14.85
2022-10-23T22:39:38.468Z,14.82
2022-10-23T22:42:05.402Z,14.83
2022-10-23T22:44:32.143Z,14.82
2022-10-23T22:46:59.036Z,14.81
2022-10-23T22:49:25.970Z,14.81
2022-10-23T22:51:52.897Z,14.80
2022-10-23T22:54:19.682Z,14.76
2022-10-23T22:56:46.498Z,14.75
2022-10-23T22:59:13.222Z,14.69
2022-10-23T23:01:43.846Z,14.67
2022-10-23T23:07:10.029Z,14.72
2022-10-23T23:09:41.956Z,14.71
2022-10-23T23:12:11.128Z,14.72
2022-10-23T23:14:38.292Z,14.69
2022-10-23T23:17:07.018Z,14.69
2022-10-23T23:19:34.298Z,14.68
2022-10-23T23:22:01.389Z,14.69
2022-10-23T23:24:28.256Z,14.64
2022-10-23T23:26:55.083Z,14.68
2022-10-23T23:29:22.083Z,14.65
2022-10-23T23:31:51.240Z,14.64
2022-10-23T23:34:18.081Z,14.63
2022-10-23T23:36:45.022Z,14.62
2022-10-23T23:39:11.902Z,14.60
2022-10-23T23:41:38.646Z,14.59
2022-10-23T23:44:05.740Z,14.57
2022-10-23T23:46:32.514Z,14.59
2022-10-23T23:48:59.385Z,14.57
2022-10-23T23:51:26.312Z,14.54
2022-10-23T23:53:53.619Z,14.50
2022-10-23T23:56:20.883Z,14.46
2022-10-23T23:58:47.819Z,14.44
